»·PEaware :: N843SC KHQM-KOLM

N843SC :: KHQM-KOLM

FLIGHT INFORMATION

Flight Status: Arrived
Operator: Privately registered:
United States
More flights under this callsign
Pilot: Elliott T. (30246)
Aircraft: CESSNA 172 SKYHAWK
(C172)
More flights by this aircraft type
Origin: KHQM Bowerman
United States
Destination: KOLM Olympia
United States
More flights between these airports :: More routes between these airports
Route:
File this flight plan on PilotEdge
Remarks:
Altitude:
(Current/Filed)
3,500ft
Speed:
(Current/Filed)
110kts
Departed: 11-Sep-20 05:11 PM
Arrived: 11-Sep-20 05:58 PM
Distance/Time
Traveled:
43nm/0:47
Distance/Time
To Go:
Arrived

Flight Plot

Page will automatically refresh every two minutes.

Flight plan parsing failed; only flown route is shown


Map Options




Map Legend


Flown Route
Filed Route
Departure Airport
Arrival Airport
Navaid (VOR, NDB)
Fix

Horizontal Profiles

Position Reports

Time Latitude Longitude Heading Altitude Ground
Speed
11-Sep-20 17:08 46.972236 -123.928215 259 18ft 0kts
11-Sep-20 17:09 46.972236 -123.928215 259 18ft 0kts
11-Sep-20 17:10 46.972234 -123.928233 257 18ft 2kts
11-Sep-20 17:11 46.967807 -123.952186 243 364ft 80kts
11-Sep-20 17:12 46.964620 -123.934790 64 1017ft 88kts
11-Sep-20 17:12 46.968428 -123.904758 87 1576ft 90kts
11-Sep-20 17:14 46.956835 -123.868773 149 2272ft 89kts
11-Sep-20 17:15 46.947452 -123.840443 90 2757ft 91kts
11-Sep-20 17:15 46.946374 -123.809795 100 3211ft 90kts
11-Sep-20 17:16 46.945566 -123.773117 93 3665ft 98kts
11-Sep-20 17:18 46.939344 -123.726380 114 3830ft 103kts
11-Sep-20 17:18 46.927371 -123.694966 126 3703ft 118kts
11-Sep-20 17:19 46.906747 -123.661067 133 3652ft 106kts
11-Sep-20 17:21 46.896869 -123.613944 89 3639ft 109kts
11-Sep-20 17:21 46.904666 -123.579098 65 3635ft 109kts
11-Sep-20 17:22 46.917774 -123.538677 65 3630ft 109kts
11-Sep-20 17:23 46.930840 -123.498313 65 3637ft 109kts
11-Sep-20 17:24 46.943897 -123.458021 67 3633ft 110kts
11-Sep-20 17:25 46.946810 -123.415845 86 3636ft 109kts
11-Sep-20 17:26 46.949236 -123.371900 86 3635ft 109kts
11-Sep-20 17:27 46.951720 -123.327444 86 3634ft 109kts
11-Sep-20 17:28 46.954243 -123.282442 86 3626ft 112kts
11-Sep-20 17:29 46.956768 -123.237770 86 3627ft 108kts
11-Sep-20 17:30 46.959255 -123.194028 86 3629ft 107kts
11-Sep-20 17:31 46.949280 -123.172038 254 3631ft 102kts
11-Sep-20 17:32 46.955078 -123.213163 282 3624ft 105kts
11-Sep-20 17:33 46.961863 -123.254420 282 3629ft 104kts
11-Sep-20 17:34 46.968663 -123.295850 282 3627ft 104kts
11-Sep-20 17:35 46.960134 -123.292461 60 3630ft 106kts
11-Sep-20 17:36 46.977328 -123.256506 56 3627ft 108kts
11-Sep-20 17:37 46.990345 -123.216815 68 3627ft 108kts
11-Sep-20 17:38 47.001859 -123.175354 68 3626ft 110kts
11-Sep-20 17:39 47.013337 -123.134147 68 3622ft 110kts
11-Sep-20 17:40 47.024980 -123.092397 68 3425ft 113kts
11-Sep-20 17:41 47.036214 -123.052052 69 3422ft 109kts
11-Sep-20 17:42 47.047662 -123.010863 68 3422ft 109kts
11-Sep-20 17:43 47.058892 -122.970398 68 3422ft 109kts
11-Sep-20 17:44 47.070313 -122.929172 68 3421ft 108kts
11-Sep-20 17:45 47.081585 -122.888415 68 3422ft 109kts
11-Sep-20 17:46 47.107190 -122.869654 15 3420ft 108kts
11-Sep-20 17:47 47.136036 -122.857717 15 3419ft 107kts
11-Sep-20 17:48 47.162266 -122.874625 329 3416ft 103kts
11-Sep-20 17:49 47.155039 -122.884583 150 3163ft 116kts
11-Sep-20 17:50 47.128351 -122.860659 148 2541ft 86kts
11-Sep-20 17:51 47.114753 -122.872787 196 2466ft 87kts
11-Sep-20 17:52 47.089413 -122.872201 170 2386ft 91kts
11-Sep-20 17:53 47.063284 -122.877103 192 1899ft 96kts
11-Sep-20 17:54 47.036773 -122.884570 194 1374ft 100kts
11-Sep-20 17:55 47.010586 -122.892116 195 776ft 89kts
11-Sep-20 17:56 46.985791 -122.901356 192 423ft 83kts
11-Sep-20 17:57 46.966311 -122.905257 190 200ft 33kts
11-Sep-20 17:58 46.963504 -122.903104 95 205ft 18kts
11-Sep-20 17:59 46.967901 -122.900874 11 202ft 27kts
11-Sep-20 18:00 46.973108 -122.895330 60 203ft 8kts

Navigation Log

Ident Type
Flight plan parsing failed, navigation log unavailable